Panagia — SVA5679 — position and weather

sailwx.info

Track history (hours):
 
Tides and Currents Weather Stations Pressure Air Temp Water Temp Dewpoint Dewpoint Depression Visibility Wind Speed Wind Dir Waves Ship Positions

Panagia

Last reported at 2017-Sep-21 08:39 UTC. Time now 2017-Sep-23 05:56 UTC.
Position N 40°20' E 024°12'.

Length 24 m; draft 2 m.

Type: Ship. MMSI: 239785700.

Date/timePositionNaut miles runAvg speedWind from/ knotsBaromVisibWave heightAir tempDewpointWater temp
2017-Sep-21 08:39N 40°20' E 024°12'1 3.1
2017-Sep-21 08:20N 40°19' E 024°13'617.2
2017-Sep-21 08:00N 40°15' E 024°18'0 0.2
2017-Sep-21 07:30N 40°15' E 024°18'17 0.8
2017-Sep-20 09:15N 40°27' E 024°01'518.6
2017-Sep-20 09:00N 40°23' E 024°05'714.4
2017-Sep-20 08:30N 40°19' E 024°13'1 1.6
2017-Sep-20 08:00N 40°19' E 024°14'816.0
2017-Sep-20 07:30N 40°13' E 024°20'815.0
2017-Sep-20 07:00N 40°19' E 024°14'611.7
2017-Sep-20 06:30N 40°22' E 024°07'912.7
2017-Sep-20 05:49N 40°26' E 023°57'1 0.0
2017-Sep-19 09:39N 40°25' E 023°57'413.6
2017-Sep-19 09:20N 40°26' E 024°02'617.5
2017-Sep-19 09:00N 40°22' E 024°07'510.1
2017-Sep-19 08:31N 40°19' E 024°13'0 0.0
2017-Sep-19 08:00N 40°19' E 024°13'4 8.1
2017-Sep-19 07:30N 40°16' E 024°17'4 7.9
2017-Sep-19 07:00N 40°19' E 024°13'16 0.7
2017-Sep-18 10:01N 40°24' E 023°54'0 0.0
2017-Sep-18 10:00N 40°24' E 023°54'613.1
2017-Sep-18 09:30N 40°26' E 024°01'714.2
2017-Sep-18 09:00N 40°22' E 024°08'713.5
2017-Sep-18 08:30N 40°18' E 024°16'713.5
2017-Sep-18 08:00N 40°12' E 024°21'5 9.1
2017-Sep-18 07:31N 40°16' E 024°17'4 8.6
2017-Sep-18 07:01N 40°19' E 024°13'611.5
2017-Sep-18 06:30N 40°22' E 024°07'815.1
2017-Sep-18 06:00N 40°26' E 023°58'4 8.4
2017-Sep-18 05:29N 40°24' E 023°54'0 0.0
2017-Sep-17 09:51N 40°24' E 023°54'411.3
2017-Sep-17 09:30N 40°26' E 023°58'713.8
2017-Sep-17 09:01N 40°23' E 024°06'612.7
2017-Sep-17 08:30N 40°19' E 024°13'510.9
2017-Sep-17 08:00N 40°15' E 024°17'1 1.7
2017-Sep-17 07:30N 40°15' E 024°18'612.7
2017-Sep-17 07:00N 40°19' E 024°13'5 9.8
2017-Sep-17 06:30N 40°22' E 024°07'815.4
2017-Sep-17 06:00N 40°27' E 024°01'713.0
2017-Sep-17 05:31N 40°24' E 023°54'0 0.0
2017-Sep-16 10:03N 40°24' E 023°54'0 1.5
2017-Sep-16 10:00N 40°24' E 023°54'713.9
2017-Sep-16 09:30N 40°26' E 024°02'714.0
2017-Sep-16 09:00N 40°22' E 024°09'4 7.3
2017-Sep-16 08:30N 40°19' E 024°13'3 5.6
2017-Sep-16 08:00N 40°18' E 024°16'510.6
2017-Sep-16 07:30N 40°13' E 024°20'714.7
2017-Sep-16 07:00N 40°19' E 024°14'611.3
2017-Sep-16 06:30N 40°22' E 024°07'815.5
2017-Sep-16 05:59N 40°27' E 023°60'4 0.1
2017-Sep-14 09:13N 40°24' E 024°04'413.4
2017-Sep-14 08:57N 40°22' E 024°07'5 5.3
2017-Sep-14 08:00N 40°19' E 024°13'510.8
2017-Sep-14 07:30N 40°15' E 024°17'510.7
2017-Sep-14 07:01N 40°19' E 024°13'611.5
2017-Sep-14 06:29N 40°23' E 024°06'10 0.5
2017-Sep-13 09:54N 40°24' E 023°54'615.2
2017-Sep-13 09:30N 40°27' E 023°60'815.7
2017-Sep-13 09:00N 40°22' E 024°07'510.1
2017-Sep-13 08:30N 40°19' E 024°13'2 4.2
2017-Sep-13 08:00N 40°19' E 024°16'4 8.9
2017-Sep-13 07:31N 40°15' E 024°18'612.0
2017-Sep-13 07:00N 40°19' E 024°13'510.0
2017-Sep-13 06:30N 40°22' E 024°07'10 0.2
2017-Sep-11 09:46N 40°24' E 023°54'312.7
2017-Sep-11 09:30N 40°26' E 023°57'714.1
2017-Sep-11 08:59N 40°22' E 024°06'  
Track history (hours):
 
Tides and Currents Weather Stations Pressure Air Temp Water Temp Dewpoint Dewpoint Depression Visibility Wind Speed Wind Dir Waves Ship Positions

Panagia

Last reported at 2017-Sep-21 08:39 UTC. Time now 2017-Sep-23 05:56 UTC.
Position N 40°20' E 024°12'.

Length 24 m; draft 2 m.

Type: Ship. MMSI: 239785700.

Date/timePositionNaut miles runAvg speedWind from/ knotsBaromVisibWave heightAir tempDewpointWater temp
2017-Sep-21 08:39N 40°20' E 024°12'1 3.1
2017-Sep-21 08:20N 40°19' E 024°13'617.2
2017-Sep-21 08:00N 40°15' E 024°18'0 0.2
2017-Sep-21 07:30N 40°15' E 024°18'17 0.8
2017-Sep-20 09:15N 40°27' E 024°01'518.6
2017-Sep-20 09:00N 40°23' E 024°05'714.4
2017-Sep-20 08:30N 40°19' E 024°13'1 1.6
2017-Sep-20 08:00N 40°19' E 024°14'816.0
2017-Sep-20 07:30N 40°13' E 024°20'815.0
2017-Sep-20 07:00N 40°19' E 024°14'611.7
2017-Sep-20 06:30N 40°22' E 024°07'912.7
2017-Sep-20 05:49N 40°26' E 023°57'1 0.0
2017-Sep-19 09:39N 40°25' E 023°57'413.6
2017-Sep-19 09:20N 40°26' E 024°02'617.5
2017-Sep-19 09:00N 40°22' E 024°07'510.1
2017-Sep-19 08:31N 40°19' E 024°13'0 0.0
2017-Sep-19 08:00N 40°19' E 024°13'4 8.1
2017-Sep-19 07:30N 40°16' E 024°17'4 7.9
2017-Sep-19 07:00N 40°19' E 024°13'16 0.7
2017-Sep-18 10:01N 40°24' E 023°54'0 0.0
2017-Sep-18 10:00N 40°24' E 023°54'613.1
2017-Sep-18 09:30N 40°26' E 024°01'714.2
2017-Sep-18 09:00N 40°22' E 024°08'713.5
2017-Sep-18 08:30N 40°18' E 024°16'713.5
2017-Sep-18 08:00N 40°12' E 024°21'5 9.1
2017-Sep-18 07:31N 40°16' E 024°17'4 8.6
2017-Sep-18 07:01N 40°19' E 024°13'611.5
2017-Sep-18 06:30N 40°22' E 024°07'815.1
2017-Sep-18 06:00N 40°26' E 023°58'4 8.4
2017-Sep-18 05:29N 40°24' E 023°54'0 0.0
2017-Sep-17 09:51N 40°24' E 023°54'411.3
2017-Sep-17 09:30N 40°26' E 023°58'713.8
2017-Sep-17 09:01N 40°23' E 024°06'612.7
2017-Sep-17 08:30N 40°19' E 024°13'510.9
2017-Sep-17 08:00N 40°15' E 024°17'1 1.7
2017-Sep-17 07:30N 40°15' E 024°18'612.7
2017-Sep-17 07:00N 40°19' E 024°13'5 9.8
2017-Sep-17 06:30N 40°22' E 024°07'815.4
2017-Sep-17 06:00N 40°27' E 024°01'713.0
2017-Sep-17 05:31N 40°24' E 023°54'0 0.0
2017-Sep-16 10:03N 40°24' E 023°54'0 1.5
2017-Sep-16 10:00N 40°24' E 023°54'713.9
2017-Sep-16 09:30N 40°26' E 024°02'714.0
2017-Sep-16 09:00N 40°22' E 024°09'4 7.3
2017-Sep-16 08:30N 40°19' E 024°13'3 5.6
2017-Sep-16 08:00N 40°18' E 024°16'510.6
2017-Sep-16 07:30N 40°13' E 024°20'714.7
2017-Sep-16 07:00N 40°19' E 024°14'611.3
2017-Sep-16 06:30N 40°22' E 024°07'815.5
2017-Sep-16 05:59N 40°27' E 023°60'4 0.1
2017-Sep-14 09:13N 40°24' E 024°04'413.4
2017-Sep-14 08:57N 40°22' E 024°07'5 5.3
2017-Sep-14 08:00N 40°19' E 024°13'510.8
2017-Sep-14 07:30N 40°15' E 024°17'510.7
2017-Sep-14 07:01N 40°19' E 024°13'611.5
2017-Sep-14 06:29N 40°23' E 024°06'10 0.5
2017-Sep-13 09:54N 40°24' E 023°54'615.2
2017-Sep-13 09:30N 40°27' E 023°60'815.7
2017-Sep-13 09:00N 40°22' E 024°07'510.1
2017-Sep-13 08:30N 40°19' E 024°13'2 4.2
2017-Sep-13 08:00N 40°19' E 024°16'4 8.9
2017-Sep-13 07:31N 40°15' E 024°18'612.0
2017-Sep-13 07:00N 40°19' E 024°13'510.0
2017-Sep-13 06:30N 40°22' E 024°07'10 0.2
2017-Sep-11 09:46N 40°24' E 023°54'312.7
2017-Sep-11 09:30N 40°26' E 023°57'714.1
2017-Sep-11 08:59N 40°22' E 024°06'  

Dump ship's entire track history